Milan, MI (48160)

8:26 PM EDT on August 21, 2014 (GMT -0400)
Covington Drive | Change Station
CLOSE
Current Station
Personal Weather Station
Location: Saline, MI
Elevation: 810 ft
Nearby Weather Stations

Elev 810 ft 42.15 °N, 83.74 °W | Updated 1 minute ago

Mostly Cloudy
Mostly Cloudy
74.3 °F
Feels Like 72 °F
N
0.0
Wind Variable Wind from West
Gusts 0.0 mph

Today
High -- | Low -- °F
--% Chance of Precip.
Yesterday
High -- | Low -- °F
Precip. -- in
6:48 AM 8:26 PM
Waning Crescent, 11% visible
Pressure 29.95 in
Visibility 10.0 miles
Clouds Few 2400 ft
Mostly Cloudy 3300 ft
Mostly Cloudy 11000 ft
Heat Index 72 °F
Dew Point 72 °F
Humidity 94%
Rainfall 0.06 in
Snow Depth Not available.
UV 0 out of 12
Pollen 9.00 out of 12
Ozone Good
PM2.5 Moderate
Flu Activity Not available.
METAR KARB 212353Z AUTO 00000KT 10SM FEW024 BKN033 BKN110 24/21 A2996 RMK AO2 RAE29 SLP141 P0004 60010 T02390211 10283 20239 55001

More Conditions Fewer Conditions

Pressure 29.95 in
Visibility 10.0 miles
Clouds Few 2400 ft
Mostly Cloudy 3300 ft
Mostly Cloudy 11000 ft
Heat Index 72 °F
Dew Point 72 °F
Humidity 94%
Rainfall 0.06 in
Snow Depth Not available.
UV 0 out of 12
Pollen 9.00 out of 12
Ozone Good
PM2.5 Moderate
Flu Activity Not available.
METAR KARB 212353Z AUTO 00000KT 10SM FEW024 BKN033 BKN110 24/21 A2996 RMK AO2 RAE29 SLP141 P0004 60010 T02390211 10283 20239 55001

More Conditions Fewer Conditions

10-Day Weather Forecast

Almanac

Astronomy

Aug. 21, 2014 Rise Set
Actual Time 6:48 AM EDT 8:26 PM EDT
Civil Twilight 6:19 AM EDT 8:55 PM EDT
Nautical Twilight 5:43 AM EDT 9:31 PM EDT
Astronomical Twilight 5:04 AM EDT 10:09 PM EDT
Moon 3:16 AM EDT (8/21) 5:55 PM EDT (8/21)
Length of Visible Light 14h 36m
Length of Day
13h 37m
Tomorrow will be 2m 36s shorter.
Waning Crescent, 11% of the Moon is Illuminated
Today
Waning Crescent
Aug 25
New
Sep 2
First Quarter
Sep 8
Full
Sep 15
Last Quarter

Today's Extremes

State Highs State Lows

Community

WunderPhotos

Upload Photos

1,746,075 photos uploaded!

Nearby

Air Quality

  Air Quality AQ Index Pollutant
Yesterday Good
OZONE
Yesterday Good
PM2.5
Current Moderate
PM2.5
Current Good
OZONE
Thursday Moderate
PM2.5
Thursday Good
OZONE
Friday Moderate
PM2.5
Friday Good
OZONE
Saturday Moderate
PM2.5
Saturday Good
OZONE
Sunday Moderate
OZONE
Sunday Moderate
PM2.5

Snow Depth

Station Depth Elevation
No new snow has been reported.

Earthquake Activity

City Distance Mag. Time & Date
No recent earthquake activity has been reported nearby.
Minimum magnitude displayed is 2.5.

Coastal Water Temperatures

Place Temperature
Marblehead, OH 73.0 °F

Nearby Weather Stations